sensor_id;sensor_type;location;lat;lon;timestamp;temperature;humidity
34279;DHT22;20538;51.528;9.942;2023-12-07T00:00:42;2.80;99.90
34279;DHT22;20538;51.528;9.942;2023-12-07T00:03:08;2.80;99.90
34279;DHT22;20538;51.528;9.942;2023-12-07T00:05:34;2.80;99.90
34279;DHT22;20538;51.528;9.942;2023-12-07T00:08:00;2.80;99.90
34279;DHT22;20538;51.528;9.942;2023-12-07T00:10:25;2.80;99.90
34279;DHT22;20538;51.528;9.942;2023-12-07T00:12:51;2.90;99.90
34279;DHT22;20538;51.528;9.942;2023-12-07T00:15:17;2.90;99.90
34279;DHT22;20538;51.528;9.942;2023-12-07T00:17:42;2.80;99.90
34279;DHT22;20538;51.528;9.942;2023-12-07T00:20:08;2.90;99.90
34279;DHT22;20538;51.528;9.942;2023-12-07T00:22:34;2.90;99.90
34279;DHT22;20538;51.528;9.942;2023-12-07T00:25:00;2.90;99.90
34279;DHT22;20538;51.528;9.942;2023-12-07T00:27:25;2.90;99.90
34279;DHT22;20538;51.528;9.942;2023-12-07T00:29:51;2.90;99.90
34279;DHT22;20538;51.528;9.942;2023-12-07T00:32:16;2.90;99.90
34279;DHT22;20538;51.528;9.942;2023-12-07T00:34:43;2.90;99.90
34279;DHT22;20538;51.528;9.942;2023-12-07T00:37:08;2.90;99.90
34279;DHT22;20538;51.528;9.942;2023-12-07T00:39:35;2.90;99.90
34279;DHT22;20538;51.528;9.942;2023-12-07T00:42:01;2.90;99.90
34279;DHT22;20538;51.528;9.942;2023-12-07T00:44:27;2.90;99.90
34279;DHT22;20538;51.528;9.942;2023-12-07T00:46:52;2.90;99.90
34279;DHT22;20538;51.528;9.942;2023-12-07T00:49:18;2.90;99.90
34279;DHT22;20538;51.528;9.942;2023-12-07T00:51:44;2.90;99.90
34279;DHT22;20538;51.528;9.942;2023-12-07T00:54:09;2.90;99.90
34279;DHT22;20538;51.528;9.942;2023-12-07T00:56:35;2.90;99.90
34279;DHT22;20538;51.528;9.942;2023-12-07T00:59:02;2.90;99.90
34279;DHT22;20538;51.528;9.942;2023-12-07T01:01:29;2.90;99.90
34279;DHT22;20538;51.528;9.942;2023-12-07T01:03:54;2.90;99.90
34279;DHT22;20538;51.528;9.942;2023-12-07T01:06:20;2.90;99.90
34279;DHT22;20538;51.528;9.942;2023-12-07T01:08:49;2.90;99.90
34279;DHT22;20538;51.528;9.942;2023-12-07T01:11:15;2.90;99.90
34279;DHT22;20538;51.528;9.942;2023-12-07T01:13:40;2.90;99.90
34279;DHT22;20538;51.528;9.942;2023-12-07T01:16:06;2.90;99.90
34279;DHT22;20538;51.528;9.942;2023-12-07T01:18:32;2.90;99.90
34279;DHT22;20538;51.528;9.942;2023-12-07T01:20:58;2.90;99.90
34279;DHT22;20538;51.528;9.942;2023-12-07T01:23:23;2.90;99.90
34279;DHT22;20538;51.528;9.942;2023-12-07T01:25:49;2.90;99.90
34279;DHT22;20538;51.528;9.942;2023-12-07T01:28:14;2.90;99.90
34279;DHT22;20538;51.528;9.942;2023-12-07T01:30:40;2.90;99.90
34279;DHT22;20538;51.528;9.942;2023-12-07T01:33:06;2.90;99.90
34279;DHT22;20538;51.528;9.942;2023-12-07T01:35:31;2.90;99.90
34279;DHT22;20538;51.528;9.942;2023-12-07T01:37:57;2.90;99.90
34279;DHT22;20538;51.528;9.942;2023-12-07T01:40:22;2.90;99.90
34279;DHT22;20538;51.528;9.942;2023-12-07T01:42:52;2.90;99.90
34279;DHT22;20538;51.528;9.942;2023-12-07T01:45:18;2.90;99.90
34279;DHT22;20538;51.528;9.942;2023-12-07T01:47:45;2.90;99.90
34279;DHT22;20538;51.528;9.942;2023-12-07T01:50:13;2.90;99.90
34279;DHT22;20538;51.528;9.942;2023-12-07T01:52:44;2.90;99.90
34279;DHT22;20538;51.528;9.942;2023-12-07T01:55:11;2.90;99.90
34279;DHT22;20538;51.528;9.942;2023-12-07T01:57:38;2.80;99.90
34279;DHT22;20538;51.528;9.942;2023-12-07T02:00:04;2.90;99.90
34279;DHT22;20538;51.528;9.942;2023-12-07T02:02:31;2.90;99.90
34279;DHT22;20538;51.528;9.942;2023-12-07T02:04:57;2.80;99.90
34279;DHT22;20538;51.528;9.942;2023-12-07T02:07:23;2.80;99.90
34279;DHT22;20538;51.528;9.942;2023-12-07T02:09:49;2.80;99.90
34279;DHT22;20538;51.528;9.942;2023-12-07T02:12:15;2.80;99.90
34279;DHT22;20538;51.528;9.942;2023-12-07T02:14:41;2.80;99.90
34279;DHT22;20538;51.528;9.942;2023-12-07T02:17:17;2.80;99.90
34279;DHT22;20538;51.528;9.942;2023-12-07T02:20:01;2.80;99.90
34279;DHT22;20538;51.528;9.942;2023-12-07T02:22:43;2.80;99.90
34279;DHT22;20538;51.528;9.942;2023-12-07T02:25:10;2.80;99.90
34279;DHT22;20538;51.528;9.942;2023-12-07T02:27:42;2.80;99.90
34279;DHT22;20538;51.528;9.942;2023-12-07T02:30:10;2.70;99.90
34279;DHT22;20538;51.528;9.942;2023-12-07T02:32:37;2.70;99.90
34279;DHT22;20538;51.528;9.942;2023-12-07T02:35:05;2.70;99.90
34279;DHT22;20538;51.528;9.942;2023-12-07T02:37:35;2.70;99.90
34279;DHT22;20538;51.528;9.942;2023-12-07T02:40:04;2.70;99.90
34279;DHT22;20538;51.528;9.942;2023-12-07T02:42:31;2.70;99.90
34279;DHT22;20538;51.528;9.942;2023-12-07T02:44:58;2.70;99.90
34279;DHT22;20538;51.528;9.942;2023-12-07T02:47:25;2.60;99.90
34279;DHT22;20538;51.528;9.942;2023-12-07T02:49:50;2.70;99.90
34279;DHT22;20538;51.528;9.942;2023-12-07T02:52:16;2.70;99.90
34279;DHT22;20538;51.528;9.942;2023-12-07T02:54:42;2.60;99.90
34279;DHT22;20538;51.528;9.942;2023-12-07T02:57:07;2.70;99.90
34279;DHT22;20538;51.528;9.942;2023-12-07T02:59:33;2.60;99.90
34279;DHT22;20538;51.528;9.942;2023-12-07T03:01:58;2.70;99.90
34279;DHT22;20538;51.528;9.942;2023-12-07T03:04:24;2.70;99.90
34279;DHT22;20538;51.528;9.942;2023-12-07T03:06:50;2.60;99.90
34279;DHT22;20538;51.528;9.942;2023-12-07T03:09:15;2.70;99.90
34279;DHT22;20538;51.528;9.942;2023-12-07T03:11:41;2.60;99.90
34279;DHT22;20538;51.528;9.942;2023-12-07T03:14:07;2.60;99.90
34279;DHT22;20538;51.528;9.942;2023-12-07T03:16:33;2.60;99.90
34279;DHT22;20538;51.528;9.942;2023-12-07T03:19:01;2.60;99.90
34279;DHT22;20538;51.528;9.942;2023-12-07T03:21:27;2.60;99.90
34279;DHT22;20538;51.528;9.942;2023-12-07T03:23:52;2.60;99.90
34279;DHT22;20538;51.528;9.942;2023-12-07T03:26:18;2.70;99.90
34279;DHT22;20538;51.528;9.942;2023-12-07T03:28:43;2.60;99.90
34279;DHT22;20538;51.528;9.942;2023-12-07T03:31:09;2.60;99.90
34279;DHT22;20538;51.528;9.942;2023-12-07T03:33:35;2.60;99.90
34279;DHT22;20538;51.528;9.942;2023-12-07T03:36:01;2.60;99.90
34279;DHT22;20538;51.528;9.942;2023-12-07T03:38:27;2.60;99.90
34279;DHT22;20538;51.528;9.942;2023-12-07T03:40:53;2.60;99.90
34279;DHT22;20538;51.528;9.942;2023-12-07T03:43:19;2.60;99.90
34279;DHT22;20538;51.528;9.942;2023-12-07T03:45:46;2.60;99.90
34279;DHT22;20538;51.528;9.942;2023-12-07T03:48:12;2.60;99.90
34279;DHT22;20538;51.528;9.942;2023-12-07T03:50:38;2.60;99.90
34279;DHT22;20538;51.528;9.942;2023-12-07T03:53:03;2.60;99.90
34279;DHT22;20538;51.528;9.942;2023-12-07T03:55:29;2.60;99.90
34279;DHT22;20538;51.528;9.942;2023-12-07T03:57:54;2.60;99.90
34279;DHT22;20538;51.528;9.942;2023-12-07T04:00:20;2.60;99.90
34279;DHT22;20538;51.528;9.942;2023-12-07T04:02:46;2.70;99.90
34279;DHT22;20538;51.528;9.942;2023-12-07T04:05:12;2.70;99.90
34279;DHT22;20538;51.528;9.942;2023-12-07T04:07:39;2.70;99.90
34279;DHT22;20538;51.528;9.942;2023-12-07T04:10:05;2.70;99.90
34279;DHT22;20538;51.528;9.942;2023-12-07T04:12:31;2.70;99.90
34279;DHT22;20538;51.528;9.942;2023-12-07T04:14:57;2.70;99.90
34279;DHT22;20538;51.528;9.942;2023-12-07T04:17:23;2.70;99.90
34279;DHT22;20538;51.528;9.942;2023-12-07T04:19:48;2.70;99.90
34279;DHT22;20538;51.528;9.942;2023-12-07T04:22:14;2.70;99.90
34279;DHT22;20538;51.528;9.942;2023-12-07T04:24:39;2.80;99.90
34279;DHT22;20538;51.528;9.942;2023-12-07T04:27:05;2.80;99.90
34279;DHT22;20538;51.528;9.942;2023-12-07T04:29:31;2.90;99.90
34279;DHT22;20538;51.528;9.942;2023-12-07T04:31:56;2.90;99.90
34279;DHT22;20538;51.528;9.942;2023-12-07T04:34:22;2.80;99.90
34279;DHT22;20538;51.528;9.942;2023-12-07T04:36:49;2.80;99.90
34279;DHT22;20538;51.528;9.942;2023-12-07T04:39:14;2.80;99.90
34279;DHT22;20538;51.528;9.942;2023-12-07T04:41:40;2.90;99.90
34279;DHT22;20538;51.528;9.942;2023-12-07T04:44:08;2.90;99.90
34279;DHT22;20538;51.528;9.942;2023-12-07T04:46:34;2.80;99.90
34279;DHT22;20538;51.528;9.942;2023-12-07T04:49:00;2.80;99.90
34279;DHT22;20538;51.528;9.942;2023-12-07T04:51:26;2.80;99.90
34279;DHT22;20538;51.528;9.942;2023-12-07T04:53:51;2.80;99.90
34279;DHT22;20538;51.528;9.942;2023-12-07T04:56:17;2.90;99.90
34279;DHT22;20538;51.528;9.942;2023-12-07T04:58:42;2.80;99.90
34279;DHT22;20538;51.528;9.942;2023-12-07T05:01:08;2.80;99.90
34279;DHT22;20538;51.528;9.942;2023-12-07T05:03:34;2.80;99.90
34279;DHT22;20538;51.528;9.942;2023-12-07T05:05:59;2.80;99.90
34279;DHT22;20538;51.528;9.942;2023-12-07T05:08:25;2.80;99.90
34279;DHT22;20538;51.528;9.942;2023-12-07T05:10:51;2.80;99.90
34279;DHT22;20538;51.528;9.942;2023-12-07T05:13:17;2.80;99.90
34279;DHT22;20538;51.528;9.942;2023-12-07T05:15:42;2.80;99.90
34279;DHT22;20538;51.528;9.942;2023-12-07T05:18:08;2.80;99.90
34279;DHT22;20538;51.528;9.942;2023-12-07T05:20:34;2.80;99.90
34279;DHT22;20538;51.528;9.942;2023-12-07T05:22:59;2.70;99.90
34279;DHT22;20538;51.528;9.942;2023-12-07T05:25:25;2.70;99.90
34279;DHT22;20538;51.528;9.942;2023-12-07T05:27:50;2.70;99.90
34279;DHT22;20538;51.528;9.942;2023-12-07T05:30:16;2.70;99.90
34279;DHT22;20538;51.528;9.942;2023-12-07T05:32:42;2.70;99.90
34279;DHT22;20538;51.528;9.942;2023-12-07T05:35:10;2.70;99.90
34279;DHT22;20538;51.528;9.942;2023-12-07T05:37:36;2.70;99.90
34279;DHT22;20538;51.528;9.942;2023-12-07T05:40:02;2.70;99.90
34279;DHT22;20538;51.528;9.942;2023-12-07T05:42:28;2.70;99.90
34279;DHT22;20538;51.528;9.942;2023-12-07T05:44:53;2.70;99.90
34279;DHT22;20538;51.528;9.942;2023-12-07T05:47:20;2.70;99.90
34279;DHT22;20538;51.528;9.942;2023-12-07T05:49:46;2.70;99.90
34279;DHT22;20538;51.528;9.942;2023-12-07T05:52:11;2.70;99.90
34279;DHT22;20538;51.528;9.942;2023-12-07T05:54:39;2.70;99.90
34279;DHT22;20538;51.528;9.942;2023-12-07T05:57:07;2.70;99.90
34279;DHT22;20538;51.528;9.942;2023-12-07T05:59:37;2.60;99.90
34279;DHT22;20538;51.528;9.942;2023-12-07T06:02:03;2.70;99.90
34279;DHT22;20538;51.528;9.942;2023-12-07T06:04:30;2.70;99.90
34279;DHT22;20538;51.528;9.942;2023-12-07T06:06:56;2.70;99.90
34279;DHT22;20538;51.528;9.942;2023-12-07T06:09:21;2.70;99.90
34279;DHT22;20538;51.528;9.942;2023-12-07T06:11:47;2.70;99.90
34279;DHT22;20538;51.528;9.942;2023-12-07T06:14:13;2.80;99.90
34279;DHT22;20538;51.528;9.942;2023-12-07T06:16:39;2.80;99.90
34279;DHT22;20538;51.528;9.942;2023-12-07T06:19:04;2.70;99.90
34279;DHT22;20538;51.528;9.942;2023-12-07T06:21:30;2.70;99.90
34279;DHT22;20538;51.528;9.942;2023-12-07T06:23:57;2.70;99.90
34279;DHT22;20538;51.528;9.942;2023-12-07T06:26:24;2.70;99.90
34279;DHT22;20538;51.528;9.942;2023-12-07T06:28:50;2.70;99.90
34279;DHT22;20538;51.528;9.942;2023-12-07T06:31:15;2.70;99.90
34279;DHT22;20538;51.528;9.942;2023-12-07T06:33:45;2.80;99.90
34279;DHT22;20538;51.528;9.942;2023-12-07T06:36:11;2.80;99.90
34279;DHT22;20538;51.528;9.942;2023-12-07T06:38:37;2.70;99.90
34279;DHT22;20538;51.528;9.942;2023-12-07T06:41:04;2.70;99.90
34279;DHT22;20538;51.528;9.942;2023-12-07T06:43:29;2.70;99.90
34279;DHT22;20538;51.528;9.942;2023-12-07T06:45:55;2.70;99.90
34279;DHT22;20538;51.528;9.942;2023-12-07T06:48:21;2.70;99.90
34279;DHT22;20538;51.528;9.942;2023-12-07T06:50:46;2.70;99.90
34279;DHT22;20538;51.528;9.942;2023-12-07T06:53:13;2.70;99.90
34279;DHT22;20538;51.528;9.942;2023-12-07T06:55:39;2.70;99.90
34279;DHT22;20538;51.528;9.942;2023-12-07T06:58:06;2.70;99.90
34279;DHT22;20538;51.528;9.942;2023-12-07T07:00:32;2.70;99.90
34279;DHT22;20538;51.528;9.942;2023-12-07T07:02:58;2.70;99.90
34279;DHT22;20538;51.528;9.942;2023-12-07T07:05:24;2.70;99.90
34279;DHT22;20538;51.528;9.942;2023-12-07T07:07:49;2.70;99.90
34279;DHT22;20538;51.528;9.942;2023-12-07T07:10:17;2.70;99.90
34279;DHT22;20538;51.528;9.942;2023-12-07T07:12:42;2.70;99.90
34279;DHT22;20538;51.528;9.942;2023-12-07T07:15:08;2.70;99.90
34279;DHT22;20538;51.528;9.942;2023-12-07T07:17:34;2.60;99.90
34279;DHT22;20538;51.528;9.942;2023-12-07T07:20:00;2.60;99.90
34279;DHT22;20538;51.528;9.942;2023-12-07T07:22:26;2.60;99.90
34279;DHT22;20538;51.528;9.942;2023-12-07T07:24:51;2.70;99.90
34279;DHT22;20538;51.528;9.942;2023-12-07T07:27:18;2.70;99.90
34279;DHT22;20538;51.528;9.942;2023-12-07T07:29:43;2.70;99.90
34279;DHT22;20538;51.528;9.942;2023-12-07T07:32:09;2.70;99.90
34279;DHT22;20538;51.528;9.942;2023-12-07T07:34:36;2.70;99.90
34279;DHT22;20538;51.528;9.942;2023-12-07T07:37:01;2.70;99.90
34279;DHT22;20538;51.528;9.942;2023-12-07T07:39:28;2.70;99.90
34279;DHT22;20538;51.528;9.942;2023-12-07T07:41:54;2.70;99.90
34279;DHT22;20538;51.528;9.942;2023-12-07T07:44:19;2.80;99.90
34279;DHT22;20538;51.528;9.942;2023-12-07T07:46:45;2.80;99.90
34279;DHT22;20538;51.528;9.942;2023-12-07T07:49:11;2.80;99.90
34279;DHT22;20538;51.528;9.942;2023-12-07T07:51:37;2.80;99.90
34279;DHT22;20538;51.528;9.942;2023-12-07T07:54:04;2.80;99.90
34279;DHT22;20538;51.528;9.942;2023-12-07T07:56:29;2.80;99.90
34279;DHT22;20538;51.528;9.942;2023-12-07T07:58:55;2.80;99.90
34279;DHT22;20538;51.528;9.942;2023-12-07T08:01:21;2.80;99.90
34279;DHT22;20538;51.528;9.942;2023-12-07T08:03:46;2.80;99.90
34279;DHT22;20538;51.528;9.942;2023-12-07T08:06:12;2.90;99.90
34279;DHT22;20538;51.528;9.942;2023-12-07T08:08:38;2.90;99.90
34279;DHT22;20538;51.528;9.942;2023-12-07T08:11:03;2.90;99.90
34279;DHT22;20538;51.528;9.942;2023-12-07T08:13:30;3.00;99.90
34279;DHT22;20538;51.528;9.942;2023-12-07T08:15:56;3.00;99.90
34279;DHT22;20538;51.528;9.942;2023-12-07T08:18:21;3.00;99.90
34279;DHT22;20538;51.528;9.942;2023-12-07T08:20:47;3.00;99.90
34279;DHT22;20538;51.528;9.942;2023-12-07T08:23:13;3.10;99.90
34279;DHT22;20538;51.528;9.942;2023-12-07T08:25:39;3.10;99.90
34279;DHT22;20538;51.528;9.942;2023-12-07T08:28:05;3.10;99.90
34279;DHT22;20538;51.528;9.942;2023-12-07T08:30:31;3.10;99.90
34279;DHT22;20538;51.528;9.942;2023-12-07T08:32:57;3.20;99.90
34279;DHT22;20538;51.528;9.942;2023-12-07T08:35:22;3.20;99.90
34279;DHT22;20538;51.528;9.942;2023-12-07T08:37:48;3.20;99.90
34279;DHT22;20538;51.528;9.942;2023-12-07T08:40:14;3.30;99.90
34279;DHT22;20538;51.528;9.942;2023-12-07T08:42:46;3.30;99.90
34279;DHT22;20538;51.528;9.942;2023-12-07T08:45:12;3.30;99.90
34279;DHT22;20538;51.528;9.942;2023-12-07T08:47:40;3.30;99.90
34279;DHT22;20538;51.528;9.942;2023-12-07T08:50:06;3.30;99.90
34279;DHT22;20538;51.528;9.942;2023-12-07T08:52:35;3.30;99.90
34279;DHT22;20538;51.528;9.942;2023-12-07T08:55:01;3.30;99.90
34279;DHT22;20538;51.528;9.942;2023-12-07T08:57:26;3.40;99.90
34279;DHT22;20538;51.528;9.942;2023-12-07T08:59:52;3.40;99.90
34279;DHT22;20538;51.528;9.942;2023-12-07T09:02:17;3.40;99.90
34279;DHT22;20538;51.528;9.942;2023-12-07T09:04:43;3.50;99.90
34279;DHT22;20538;51.528;9.942;2023-12-07T09:07:08;3.50;99.90
34279;DHT22;20538;51.528;9.942;2023-12-07T09:09:34;3.50;99.90
34279;DHT22;20538;51.528;9.942;2023-12-07T09:12:00;3.50;99.90
34279;DHT22;20538;51.528;9.942;2023-12-07T09:14:26;3.50;99.90
34279;DHT22;20538;51.528;9.942;2023-12-07T09:16:55;3.50;99.90
34279;DHT22;20538;51.528;9.942;2023-12-07T09:19:20;3.50;99.90
34279;DHT22;20538;51.528;9.942;2023-12-07T09:21:46;3.60;99.90
34279;DHT22;20538;51.528;9.942;2023-12-07T09:24:11;3.60;99.90
34279;DHT22;20538;51.528;9.942;2023-12-07T09:26:37;3.60;99.90
34279;DHT22;20538;51.528;9.942;2023-12-07T09:29:03;3.70;99.90
34279;DHT22;20538;51.528;9.942;2023-12-07T09:31:28;3.80;99.90
34279;DHT22;20538;51.528;9.942;2023-12-07T09:33:54;3.80;99.90
34279;DHT22;20538;51.528;9.942;2023-12-07T09:36:20;3.80;99.90
34279;DHT22;20538;51.528;9.942;2023-12-07T09:38:49;3.80;99.90
34279;DHT22;20538;51.528;9.942;2023-12-07T09:41:17;3.90;99.90
34279;DHT22;20538;51.528;9.942;2023-12-07T09:43:46;3.90;99.90
34279;DHT22;20538;51.528;9.942;2023-12-07T09:46:12;3.90;99.90
34279;DHT22;20538;51.528;9.942;2023-12-07T09:48:42;3.80;99.90
34279;DHT22;20538;51.528;9.942;2023-12-07T09:51:10;3.90;99.90
34279;DHT22;20538;51.528;9.942;2023-12-07T09:53:38;4.00;99.90
34279;DHT22;20538;51.528;9.942;2023-12-07T09:56:05;4.00;99.90
34279;DHT22;20538;51.528;9.942;2023-12-07T09:58:31;3.90;99.90
34279;DHT22;20538;51.528;9.942;2023-12-07T10:00:56;4.00;99.90
34279;DHT22;20538;51.528;9.942;2023-12-07T10:03:25;4.10;99.90
34279;DHT22;20538;51.528;9.942;2023-12-07T10:05:58;4.10;99.90
34279;DHT22;20538;51.528;9.942;2023-12-07T10:08:32;4.20;99.90
34279;DHT22;20538;51.528;9.942;2023-12-07T10:11:05;4.10;99.90
34279;DHT22;20538;51.528;9.942;2023-12-07T10:13:32;4.20;99.90
34279;DHT22;20538;51.528;9.942;2023-12-07T10:16:06;4.20;99.90
34279;DHT22;20538;51.528;9.942;2023-12-07T10:18:32;4.30;99.90
34279;DHT22;20538;51.528;9.942;2023-12-07T10:20:58;4.30;99.90
34279;DHT22;20538;51.528;9.942;2023-12-07T10:23:24;4.40;99.90
34279;DHT22;20538;51.528;9.942;2023-12-07T10:25:51;4.40;99.90
34279;DHT22;20538;51.528;9.942;2023-12-07T10:28:17;4.40;99.90
34279;DHT22;20538;51.528;9.942;2023-12-07T10:30:45;4.40;99.90
34279;DHT22;20538;51.528;9.942;2023-12-07T10:33:11;4.30;99.90
34279;DHT22;20538;51.528;9.942;2023-12-07T10:35:42;4.40;99.90
34279;DHT22;20538;51.528;9.942;2023-12-07T10:38:11;4.30;99.90
34279;DHT22;20538;51.528;9.942;2023-12-07T10:40:38;4.30;99.90
34279;DHT22;20538;51.528;9.942;2023-12-07T10:43:05;4.30;99.90
34279;DHT22;20538;51.528;9.942;2023-12-07T10:45:32;4.30;99.90
34279;DHT22;20538;51.528;9.942;2023-12-07T10:48:03;4.30;99.90
34279;DHT22;20538;51.528;9.942;2023-12-07T10:50:37;4.30;99.90
34279;DHT22;20538;51.528;9.942;2023-12-07T10:53:14;4.40;99.90
34279;DHT22;20538;51.528;9.942;2023-12-07T10:56:14;4.40;99.90
34279;DHT22;20538;51.528;9.942;2023-12-07T10:58:41;4.40;99.90
34279;DHT22;20538;51.528;9.942;2023-12-07T11:01:08;4.40;99.90
34279;DHT22;20538;51.528;9.942;2023-12-07T11:03:37;4.40;99.90
34279;DHT22;20538;51.528;9.942;2023-12-07T11:06:06;4.40;99.90
34279;DHT22;20538;51.528;9.942;2023-12-07T11:08:49;4.40;99.90
34279;DHT22;20538;51.528;9.942;2023-12-07T11:14:06;4.30;99.90
34279;DHT22;20538;51.528;9.942;2023-12-07T11:16:36;4.30;99.90
34279;DHT22;20538;51.528;9.942;2023-12-07T11:19:03;4.40;99.90
34279;DHT22;20538;51.528;9.942;2023-12-07T11:21:30;4.40;99.90
34279;DHT22;20538;51.528;9.942;2023-12-07T11:23:56;4.50;99.90
34279;DHT22;20538;51.528;9.942;2023-12-07T11:26:25;4.50;99.90
34279;DHT22;20538;51.528;9.942;2023-12-07T11:28:52;4.50;99.90
34279;DHT22;20538;51.528;9.942;2023-12-07T11:31:20;4.50;99.90
34279;DHT22;20538;51.528;9.942;2023-12-07T11:33:46;4.60;99.90
34279;DHT22;20538;51.528;9.942;2023-12-07T11:36:13;4.60;99.90
34279;DHT22;20538;51.528;9.942;2023-12-07T11:41:35;4.60;99.90
34279;DHT22;20538;51.528;9.942;2023-12-07T11:44:05;4.70;99.90
34279;DHT22;20538;51.528;9.942;2023-12-07T11:46:31;4.70;99.90
34279;DHT22;20538;51.528;9.942;2023-12-07T11:48:57;4.80;99.90
34279;DHT22;20538;51.528;9.942;2023-12-07T11:51:24;4.80;99.90
34279;DHT22;20538;51.528;9.942;2023-12-07T11:53:49;4.80;99.90
34279;DHT22;20538;51.528;9.942;2023-12-07T11:56:17;4.80;99.90
34279;DHT22;20538;51.528;9.942;2023-12-07T11:58:47;4.80;99.90
34279;DHT22;20538;51.528;9.942;2023-12-07T12:01:13;4.90;99.90
34279;DHT22;20538;51.528;9.942;2023-12-07T12:03:38;5.00;99.90
34279;DHT22;20538;51.528;9.942;2023-12-07T12:06:05;5.00;99.90
34279;DHT22;20538;51.528;9.942;2023-12-07T12:08:33;5.20;99.90
34279;DHT22;20538;51.528;9.942;2023-12-07T12:10:59;5.30;99.90
34279;DHT22;20538;51.528;9.942;2023-12-07T12:13:38;5.40;99.90
34279;DHT22;20538;51.528;9.942;2023-12-07T12:16:04;5.40;99.90
34279;DHT22;20538;51.528;9.942;2023-12-07T12:18:30;5.50;99.90
34279;DHT22;20538;51.528;9.942;2023-12-07T12:20:56;5.50;99.90
34279;DHT22;20538;51.528;9.942;2023-12-07T12:23:24;5.40;99.90
34279;DHT22;20538;51.528;9.942;2023-12-07T12:25:50;5.50;99.90
34279;DHT22;20538;51.528;9.942;2023-12-07T12:28:17;5.50;99.90
34279;DHT22;20538;51.528;9.942;2023-12-07T12:30:48;5.40;99.90
34279;DHT22;20538;51.528;9.942;2023-12-07T12:33:14;5.20;99.90
34279;DHT22;20538;51.528;9.942;2023-12-07T12:35:40;5.10;99.90
34279;DHT22;20538;51.528;9.942;2023-12-07T12:38:12;5.00;99.90
34279;DHT22;20538;51.528;9.942;2023-12-07T12:40:38;5.00;99.90
34279;DHT22;20538;51.528;9.942;2023-12-07T12:43:04;5.00;99.90
34279;DHT22;20538;51.528;9.942;2023-12-07T12:45:30;4.90;99.90
34279;DHT22;20538;51.528;9.942;2023-12-07T12:47:58;4.90;99.90
34279;DHT22;20538;51.528;9.942;2023-12-07T12:50:38;4.90;99.90
34279;DHT22;20538;51.528;9.942;2023-12-07T12:53:09;4.80;99.90
34279;DHT22;20538;51.528;9.942;2023-12-07T12:55:40;4.60;99.90
34279;DHT22;20538;51.528;9.942;2023-12-07T12:58:06;4.60;99.90
34279;DHT22;20538;51.528;9.942;2023-12-07T13:00:33;4.60;99.90
34279;DHT22;20538;51.528;9.942;2023-12-07T13:03:04;4.60;99.90
34279;DHT22;20538;51.528;9.942;2023-12-07T13:05:30;4.70;99.90
34279;DHT22;20538;51.528;9.942;2023-12-07T13:07:55;4.70;99.90
34279;DHT22;20538;51.528;9.942;2023-12-07T13:10:21;4.60;99.90
34279;DHT22;20538;51.528;9.942;2023-12-07T13:12:47;4.60;99.90
34279;DHT22;20538;51.528;9.942;2023-12-07T13:15:13;4.50;99.90
34279;DHT22;20538;51.528;9.942;2023-12-07T13:17:39;4.50;99.90
34279;DHT22;20538;51.528;9.942;2023-12-07T13:20:06;4.40;99.90
34279;DHT22;20538;51.528;9.942;2023-12-07T13:22:41;4.30;99.90
34279;DHT22;20538;51.528;9.942;2023-12-07T13:25:11;4.40;99.90
34279;DHT22;20538;51.528;9.942;2023-12-07T13:27:40;4.50;99.90
34279;DHT22;20538;51.528;9.942;2023-12-07T13:30:06;4.60;99.90
34279;DHT22;20538;51.528;9.942;2023-12-07T13:32:36;4.70;99.90
34279;DHT22;20538;51.528;9.942;2023-12-07T13:35:05;4.80;99.90
34279;DHT22;20538;51.528;9.942;2023-12-07T13:37:31;4.80;99.90
34279;DHT22;20538;51.528;9.942;2023-12-07T13:39:58;4.80;99.90
34279;DHT22;20538;51.528;9.942;2023-12-07T13:42:26;4.70;99.90
34279;DHT22;20538;51.528;9.942;2023-12-07T13:44:55;4.60;99.90
34279;DHT22;20538;51.528;9.942;2023-12-07T13:47:26;4.50;99.90
34279;DHT22;20538;51.528;9.942;2023-12-07T13:49:56;4.40;99.90
34279;DHT22;20538;51.528;9.942;2023-12-07T13:52:22;4.30;99.90
34279;DHT22;20538;51.528;9.942;2023-12-07T13:54:48;4.30;99.90
34279;DHT22;20538;51.528;9.942;2023-12-07T13:57:14;4.30;99.90
34279;DHT22;20538;51.528;9.942;2023-12-07T13:59:40;4.30;99.90
34279;DHT22;20538;51.528;9.942;2023-12-07T14:02:06;4.30;99.90
34279;DHT22;20538;51.528;9.942;2023-12-07T14:04:32;4.20;99.90
34279;DHT22;20538;51.528;9.942;2023-12-07T14:07:11;4.20;99.90
34279;DHT22;20538;51.528;9.942;2023-12-07T14:09:41;4.10;99.90
34279;DHT22;20538;51.528;9.942;2023-12-07T14:12:08;4.10;99.90
34279;DHT22;20538;51.528;9.942;2023-12-07T14:14:36;4.00;99.90
34279;DHT22;20538;51.528;9.942;2023-12-07T14:17:02;4.00;99.90
34279;DHT22;20538;51.528;9.942;2023-12-07T14:19:28;4.00;99.90
34279;DHT22;20538;51.528;9.942;2023-12-07T14:21:54;4.00;99.90
34279;DHT22;20538;51.528;9.942;2023-12-07T14:24:21;3.90;99.90
34279;DHT22;20538;51.528;9.942;2023-12-07T14:26:47;3.80;99.90
34279;DHT22;20538;51.528;9.942;2023-12-07T14:29:14;3.80;99.90
34279;DHT22;20538;51.528;9.942;2023-12-07T14:31:45;3.70;99.90
34279;DHT22;20538;51.528;9.942;2023-12-07T14:34:11;3.60;99.90
34279;DHT22;20538;51.528;9.942;2023-12-07T14:36:36;3.50;99.90
34279;DHT22;20538;51.528;9.942;2023-12-07T14:39:04;3.40;99.90
34279;DHT22;20538;51.528;9.942;2023-12-07T14:41:33;3.40;99.90
34279;DHT22;20538;51.528;9.942;2023-12-07T14:43:58;3.30;99.90
34279;DHT22;20538;51.528;9.942;2023-12-07T14:46:27;3.30;99.90
34279;DHT22;20538;51.528;9.942;2023-12-07T14:48:52;3.30;99.90
34279;DHT22;20538;51.528;9.942;2023-12-07T14:51:18;3.30;99.90
34279;DHT22;20538;51.528;9.942;2023-12-07T14:53:47;3.30;99.90
34279;DHT22;20538;51.528;9.942;2023-12-07T14:56:13;3.30;99.90
34279;DHT22;20538;51.528;9.942;2023-12-07T14:58:38;3.20;99.90
34279;DHT22;20538;51.528;9.942;2023-12-07T15:01:07;3.20;99.90
34279;DHT22;20538;51.528;9.942;2023-12-07T15:03:33;3.10;99.90
34279;DHT22;20538;51.528;9.942;2023-12-07T15:05:59;3.00;99.90
34279;DHT22;20538;51.528;9.942;2023-12-07T15:08:25;3.00;99.90
34279;DHT22;20538;51.528;9.942;2023-12-07T15:10:51;2.80;99.90
34279;DHT22;20538;51.528;9.942;2023-12-07T15:13:18;2.70;99.90
34279;DHT22;20538;51.528;9.942;2023-12-07T15:15:44;2.60;99.90
34279;DHT22;20538;51.528;9.942;2023-12-07T15:18:10;2.60;99.90
34279;DHT22;20538;51.528;9.942;2023-12-07T15:20:36;2.50;99.90
34279;DHT22;20538;51.528;9.942;2023-12-07T15:23:05;2.50;99.90
34279;DHT22;20538;51.528;9.942;2023-12-07T15:25:31;2.50;99.90
34279;DHT22;20538;51.528;9.942;2023-12-07T15:27:56;2.30;99.90
34279;DHT22;20538;51.528;9.942;2023-12-07T15:30:23;2.30;99.90
34279;DHT22;20538;51.528;9.942;2023-12-07T15:32:51;2.20;99.90
34279;DHT22;20538;51.528;9.942;2023-12-07T15:35:17;2.20;99.90
34279;DHT22;20538;51.528;9.942;2023-12-07T15:37:44;2.10;99.90
34279;DHT22;20538;51.528;9.942;2023-12-07T15:40:10;2.10;99.90
34279;DHT22;20538;51.528;9.942;2023-12-07T15:42:37;2.10;99.90
34279;DHT22;20538;51.528;9.942;2023-12-07T15:45:05;2.00;99.90
34279;DHT22;20538;51.528;9.942;2023-12-07T15:47:31;2.00;99.90